sensor_id;sensor_type;location;lat;lon;timestamp;temperature;humidity
578;DHT22;275;48.492;9.214;2023-03-23T00:00:59;17.50;21.60
578;DHT22;275;48.492;9.214;2023-03-23T00:03:26;17.60;21.50
578;DHT22;275;48.492;9.214;2023-03-23T00:05:54;17.40;21.80
578;DHT22;275;48.492;9.214;2023-03-23T00:08:25;17.00;22.10
578;DHT22;275;48.492;9.214;2023-03-23T00:10:52;17.00;22.30
578;DHT22;275;48.492;9.214;2023-03-23T00:13:22;17.20;22.10
578;DHT22;275;48.492;9.214;2023-03-23T00:15:49;17.10;22.20
578;DHT22;275;48.492;9.214;2023-03-23T00:18:18;17.00;22.40
578;DHT22;275;48.492;9.214;2023-03-23T00:20:48;17.20;22.20
578;DHT22;275;48.492;9.214;2023-03-23T00:23:15;17.40;21.80
578;DHT22;275;48.492;9.214;2023-03-23T00:25:45;17.40;22.00
578;DHT22;275;48.492;9.214;2023-03-23T00:28:12;17.40;22.00
578;DHT22;275;48.492;9.214;2023-03-23T00:30:40;17.50;21.30
578;DHT22;275;48.492;9.214;2023-03-23T00:33:08;17.80;21.10
578;DHT22;275;48.492;9.214;2023-03-23T00:35:39;17.80;20.90
578;DHT22;275;48.492;9.214;2023-03-23T00:38:06;17.90;21.10
578;DHT22;275;48.492;9.214;2023-03-23T00:40:34;17.90;21.00
578;DHT22;275;48.492;9.214;2023-03-23T00:43:02;17.90;20.90
578;DHT22;275;48.492;9.214;2023-03-23T00:45:30;17.60;21.30
578;DHT22;275;48.492;9.214;2023-03-23T00:48:00;17.80;21.20
578;DHT22;275;48.492;9.214;2023-03-23T00:50:27;17.70;21.10
578;DHT22;275;48.492;9.214;2023-03-23T00:52:56;17.90;20.60
578;DHT22;275;48.492;9.214;2023-03-23T00:55:23;17.90;20.50
578;DHT22;275;48.492;9.214;2023-03-23T00:57:51;17.90;20.40
578;DHT22;275;48.492;9.214;2023-03-23T01:00:19;17.80;20.60
578;DHT22;275;48.492;9.214;2023-03-23T01:02:46;17.80;20.50
578;DHT22;275;48.492;9.214;2023-03-23T01:05:13;18.00;20.10
578;DHT22;275;48.492;9.214;2023-03-23T01:07:41;17.80;20.40
578;DHT22;275;48.492;9.214;2023-03-23T01:10:12;18.00;20.10
578;DHT22;275;48.492;9.214;2023-03-23T01:12:42;18.10;20.10
578;DHT22;275;48.492;9.214;2023-03-23T01:15:12;18.40;19.80
578;DHT22;275;48.492;9.214;2023-03-23T01:17:40;18.10;20.20
578;DHT22;275;48.492;9.214;2023-03-23T01:20:07;18.00;20.30
578;DHT22;275;48.492;9.214;2023-03-23T01:22:34;18.10;20.40
578;DHT22;275;48.492;9.214;2023-03-23T01:25:01;18.20;20.30
578;DHT22;275;48.492;9.214;2023-03-23T01:27:30;18.10;20.20
578;DHT22;275;48.492;9.214;2023-03-23T01:29:57;18.20;20.30
578;DHT22;275;48.492;9.214;2023-03-23T01:32:23;18.20;20.30
578;DHT22;275;48.492;9.214;2023-03-23T01:34:50;18.20;20.30
578;DHT22;275;48.492;9.214;2023-03-23T01:37:17;18.10;20.50
578;DHT22;275;48.492;9.214;2023-03-23T01:39:45;18.10;20.80
578;DHT22;275;48.492;9.214;2023-03-23T01:42:12;18.30;21.80
578;DHT22;275;48.492;9.214;2023-03-23T01:47:43;18.30;22.10
578;DHT22;275;48.492;9.214;2023-03-23T01:50:10;18.00;22.20
578;DHT22;275;48.492;9.214;2023-03-23T01:52:37;17.90;22.30
578;DHT22;275;48.492;9.214;2023-03-23T01:55:06;17.70;22.70
578;DHT22;275;48.492;9.214;2023-03-23T01:57:33;17.60;22.80
578;DHT22;275;48.492;9.214;2023-03-23T02:00:05;17.30;22.90
578;DHT22;275;48.492;9.214;2023-03-23T02:02:42;17.40;23.20
578;DHT22;275;48.492;9.214;2023-03-23T02:05:15;17.60;23.00
578;DHT22;275;48.492;9.214;2023-03-23T02:07:45;17.40;23.10
578;DHT22;275;48.492;9.214;2023-03-23T02:10:14;17.10;23.30
578;DHT22;275;48.492;9.214;2023-03-23T02:12:41;17.00;22.90
578;DHT22;275;48.492;9.214;2023-03-23T02:15:09;17.30;22.20
578;DHT22;275;48.492;9.214;2023-03-23T02:17:40;17.20;21.90
578;DHT22;275;48.492;9.214;2023-03-23T02:20:43;17.10;22.10
578;DHT22;275;48.492;9.214;2023-03-23T02:23:36;16.90;22.20
578;DHT22;275;48.492;9.214;2023-03-23T02:26:33;16.90;22.50
578;DHT22;275;48.492;9.214;2023-03-23T02:29:25;17.10;22.40
578;DHT22;275;48.492;9.214;2023-03-23T02:32:03;17.10;22.50
578;DHT22;275;48.492;9.214;2023-03-23T02:34:38;17.00;22.50
578;DHT22;275;48.492;9.214;2023-03-23T02:37:09;16.70;23.30
578;DHT22;275;48.492;9.214;2023-03-23T02:39:43;16.80;23.20
578;DHT22;275;48.492;9.214;2023-03-23T02:42:14;17.20;22.80
578;DHT22;275;48.492;9.214;2023-03-23T02:44:44;17.30;22.70
578;DHT22;275;48.492;9.214;2023-03-23T02:47:14;17.00;23.10
578;DHT22;275;48.492;9.214;2023-03-23T02:49:46;16.80;23.60
578;DHT22;275;48.492;9.214;2023-03-23T02:52:19;16.60;23.90
578;DHT22;275;48.492;9.214;2023-03-23T02:54:48;16.70;23.90
578;DHT22;275;48.492;9.214;2023-03-23T02:57:16;16.80;23.80
578;DHT22;275;48.492;9.214;2023-03-23T02:59:43;16.80;23.80
578;DHT22;275;48.492;9.214;2023-03-23T03:02:12;16.90;23.90
578;DHT22;275;48.492;9.214;2023-03-23T03:04:42;17.10;23.60
578;DHT22;275;48.492;9.214;2023-03-23T03:07:33;16.90;23.70
578;DHT22;275;48.492;9.214;2023-03-23T03:10:06;17.00;23.70
578;DHT22;275;48.492;9.214;2023-03-23T03:12:38;17.40;23.30
578;DHT22;275;48.492;9.214;2023-03-23T03:15:13;17.60;22.90
578;DHT22;275;48.492;9.214;2023-03-23T03:17:48;17.50;22.90
578;DHT22;275;48.492;9.214;2023-03-23T03:20:19;17.70;22.30
578;DHT22;275;48.492;9.214;2023-03-23T03:22:49;17.60;22.30
578;DHT22;275;48.492;9.214;2023-03-23T03:25:18;17.70;22.20
578;DHT22;275;48.492;9.214;2023-03-23T03:27:47;17.60;22.30
578;DHT22;275;48.492;9.214;2023-03-23T03:30:20;17.80;22.30
578;DHT22;275;48.492;9.214;2023-03-23T03:32:50;17.90;22.10
578;DHT22;275;48.492;9.214;2023-03-23T03:35:19;17.80;21.90
578;DHT22;275;48.492;9.214;2023-03-23T03:37:48;17.70;22.00
578;DHT22;275;48.492;9.214;2023-03-23T03:40:18;17.80;21.90
578;DHT22;275;48.492;9.214;2023-03-23T03:42:45;17.40;22.50
578;DHT22;275;48.492;9.214;2023-03-23T03:45:14;17.20;22.90
578;DHT22;275;48.492;9.214;2023-03-23T03:47:41;17.40;22.60
578;DHT22;275;48.492;9.214;2023-03-23T03:50:08;17.40;22.70
578;DHT22;275;48.492;9.214;2023-03-23T03:52:36;17.50;22.50
578;DHT22;275;48.492;9.214;2023-03-23T03:55:06;17.70;22.20
578;DHT22;275;48.492;9.214;2023-03-23T03:57:33;17.60;22.30
578;DHT22;275;48.492;9.214;2023-03-23T04:00:00;17.60;22.20
578;DHT22;275;48.492;9.214;2023-03-23T04:02:29;17.50;22.30
578;DHT22;275;48.492;9.214;2023-03-23T04:04:56;17.50;22.20
578;DHT22;275;48.492;9.214;2023-03-23T04:07:23;17.60;22.30
578;DHT22;275;48.492;9.214;2023-03-23T04:09:51;17.20;22.70
578;DHT22;275;48.492;9.214;2023-03-23T04:12:20;17.20;22.70
578;DHT22;275;48.492;9.214;2023-03-23T04:14:46;17.20;22.70
578;DHT22;275;48.492;9.214;2023-03-23T04:17:13;17.10;22.80
578;DHT22;275;48.492;9.214;2023-03-23T04:19:42;17.20;22.90
578;DHT22;275;48.492;9.214;2023-03-23T04:22:10;17.00;22.90
578;DHT22;275;48.492;9.214;2023-03-23T04:24:37;16.90;23.20
578;DHT22;275;48.492;9.214;2023-03-23T04:27:04;16.90;23.20
578;DHT22;275;48.492;9.214;2023-03-23T04:29:32;17.00;23.00
578;DHT22;275;48.492;9.214;2023-03-23T04:31:59;17.10;22.90
578;DHT22;275;48.492;9.214;2023-03-23T04:34:27;17.10;22.90
578;DHT22;275;48.492;9.214;2023-03-23T04:36:58;16.70;23.40
578;DHT22;275;48.492;9.214;2023-03-23T04:39:25;16.80;23.40
578;DHT22;275;48.492;9.214;2023-03-23T04:41:54;17.00;23.00
578;DHT22;275;48.492;9.214;2023-03-23T04:44:21;17.10;23.00
578;DHT22;275;48.492;9.214;2023-03-23T04:46:49;17.10;23.00
578;DHT22;275;48.492;9.214;2023-03-23T04:49:19;17.10;22.90
578;DHT22;275;48.492;9.214;2023-03-23T04:51:47;17.10;23.00
578;DHT22;275;48.492;9.214;2023-03-23T04:54:16;17.20;22.90
578;DHT22;275;48.492;9.214;2023-03-23T04:56:43;17.20;22.80
578;DHT22;275;48.492;9.214;2023-03-23T04:59:10;17.20;22.90
578;DHT22;275;48.492;9.214;2023-03-23T05:01:39;17.10;22.90
578;DHT22;275;48.492;9.214;2023-03-23T05:04:12;16.70;23.40
578;DHT22;275;48.492;9.214;2023-03-23T05:06:42;16.90;23.20
578;DHT22;275;48.492;9.214;2023-03-23T05:09:10;17.00;23.30
578;DHT22;275;48.492;9.214;2023-03-23T05:11:37;17.20;22.90
578;DHT22;275;48.492;9.214;2023-03-23T05:14:04;16.90;23.20
578;DHT22;275;48.492;9.214;2023-03-23T05:16:31;17.20;22.90
578;DHT22;275;48.492;9.214;2023-03-23T05:18:58;17.20;23.10
578;DHT22;275;48.492;9.214;2023-03-23T05:21:26;17.40;22.70
578;DHT22;275;48.492;9.214;2023-03-23T05:23:53;17.40;22.50
578;DHT22;275;48.492;9.214;2023-03-23T05:26:21;17.40;22.40
578;DHT22;275;48.492;9.214;2023-03-23T05:28:49;17.40;22.50
578;DHT22;275;48.492;9.214;2023-03-23T05:31:21;17.50;22.60
578;DHT22;275;48.492;9.214;2023-03-23T05:33:51;17.40;22.60
578;DHT22;275;48.492;9.214;2023-03-23T05:36:17;17.70;22.20
578;DHT22;275;48.492;9.214;2023-03-23T05:38:46;17.90;22.00
578;DHT22;275;48.492;9.214;2023-03-23T05:43:43;17.70;22.10
578;DHT22;275;48.492;9.214;2023-03-23T05:46:10;17.60;22.40
578;DHT22;275;48.492;9.214;2023-03-23T05:48:36;17.80;22.10
578;DHT22;275;48.492;9.214;2023-03-23T05:51:04;17.60;22.60
578;DHT22;275;48.492;9.214;2023-03-23T05:53:30;17.20;22.80
578;DHT22;275;48.492;9.214;2023-03-23T05:56:02;17.20;23.00
578;DHT22;275;48.492;9.214;2023-03-23T05:58:29;17.10;23.20
578;DHT22;275;48.492;9.214;2023-03-23T06:00:56;16.90;23.70
578;DHT22;275;48.492;9.214;2023-03-23T06:03:22;17.00;23.60
578;DHT22;275;48.492;9.214;2023-03-23T06:05:49;17.20;23.10
578;DHT22;275;48.492;9.214;2023-03-23T06:08:17;17.40;23.00
578;DHT22;275;48.492;9.214;2023-03-23T06:10:44;17.60;22.80
578;DHT22;275;48.492;9.214;2023-03-23T06:13:12;17.60;22.80
578;DHT22;275;48.492;9.214;2023-03-23T06:15:39;17.70;22.70
578;DHT22;275;48.492;9.214;2023-03-23T06:18:07;17.60;23.00
578;DHT22;275;48.492;9.214;2023-03-23T06:20:34;17.50;23.10
578;DHT22;275;48.492;9.214;2023-03-23T06:23:01;17.60;23.10
578;DHT22;275;48.492;9.214;2023-03-23T06:25:29;17.50;23.10
578;DHT22;275;48.492;9.214;2023-03-23T06:27:56;17.70;23.10
578;DHT22;275;48.492;9.214;2023-03-23T06:30:24;17.90;22.90
578;DHT22;275;48.492;9.214;2023-03-23T06:32:52;17.80;22.90
578;DHT22;275;48.492;9.214;2023-03-23T06:35:19;18.00;22.70
578;DHT22;275;48.492;9.214;2023-03-23T06:37:46;17.70;23.20
578;DHT22;275;48.492;9.214;2023-03-23T06:40:13;17.80;23.10
578;DHT22;275;48.492;9.214;2023-03-23T06:42:44;18.10;22.70
578;DHT22;275;48.492;9.214;2023-03-23T06:45:11;18.10;22.70
578;DHT22;275;48.492;9.214;2023-03-23T06:47:39;18.20;22.50
578;DHT22;275;48.492;9.214;2023-03-23T06:50:07;18.40;22.30
578;DHT22;275;48.492;9.214;2023-03-23T06:52:34;18.30;22.40
578;DHT22;275;48.492;9.214;2023-03-23T06:55:01;18.10;22.80
578;DHT22;275;48.492;9.214;2023-03-23T06:57:27;18.50;22.40
578;DHT22;275;48.492;9.214;2023-03-23T06:59:54;19.10;21.70
578;DHT22;275;48.492;9.214;2023-03-23T07:02:21;19.50;21.10
578;DHT22;275;48.492;9.214;2023-03-23T07:04:51;19.30;21.30
578;DHT22;275;48.492;9.214;2023-03-23T07:07:19;19.30;21.00
578;DHT22;275;48.492;9.214;2023-03-23T07:09:46;19.40;20.50
578;DHT22;275;48.492;9.214;2023-03-23T07:12:13;18.50;21.40
578;DHT22;275;48.492;9.214;2023-03-23T07:14:41;18.00;22.10
578;DHT22;275;48.492;9.214;2023-03-23T07:17:07;18.00;21.80
578;DHT22;275;48.492;9.214;2023-03-23T07:19:34;18.20;21.50
578;DHT22;275;48.492;9.214;2023-03-23T07:22:04;18.00;22.00
578;DHT22;275;48.492;9.214;2023-03-23T07:24:31;18.70;21.20
578;DHT22;275;48.492;9.214;2023-03-23T07:26:58;18.80;21.10
578;DHT22;275;48.492;9.214;2023-03-23T07:29:25;18.50;21.20
578;DHT22;275;48.492;9.214;2023-03-23T07:31:52;18.10;22.50
578;DHT22;275;48.492;9.214;2023-03-23T07:34:19;18.00;22.00
578;DHT22;275;48.492;9.214;2023-03-23T07:36:46;18.20;22.20
578;DHT22;275;48.492;9.214;2023-03-23T07:39:15;18.20;22.20
578;DHT22;275;48.492;9.214;2023-03-23T07:41:41;18.20;22.20
578;DHT22;275;48.492;9.214;2023-03-23T07:44:08;18.00;22.60
578;DHT22;275;48.492;9.214;2023-03-23T07:46:35;17.50;23.30
578;DHT22;275;48.492;9.214;2023-03-23T07:49:02;17.50;23.70
578;DHT22;275;48.492;9.214;2023-03-23T07:51:31;17.80;23.40
578;DHT22;275;48.492;9.214;2023-03-23T07:53:57;18.10;22.90
578;DHT22;275;48.492;9.214;2023-03-23T07:56:26;17.90;23.30
578;DHT22;275;48.492;9.214;2023-03-23T07:58:53;18.10;23.20
578;DHT22;275;48.492;9.214;2023-03-23T08:01:20;18.60;22.70
578;DHT22;275;48.492;9.214;2023-03-23T08:03:48;18.90;22.30
578;DHT22;275;48.492;9.214;2023-03-23T08:06:15;18.40;22.80
578;DHT22;275;48.492;9.214;2023-03-23T08:08:42;18.20;23.30
578;DHT22;275;48.492;9.214;2023-03-23T08:11:09;18.90;22.50
578;DHT22;275;48.492;9.214;2023-03-23T08:13:37;19.10;22.40
578;DHT22;275;48.492;9.214;2023-03-23T08:16:05;19.50;21.70
578;DHT22;275;48.492;9.214;2023-03-23T08:18:32;19.00;22.10
578;DHT22;275;48.492;9.214;2023-03-23T08:21:00;18.60;23.70
578;DHT22;275;48.492;9.214;2023-03-23T08:23:27;18.30;23.10
578;DHT22;275;48.492;9.214;2023-03-23T08:25:53;18.70;23.20
578;DHT22;275;48.492;9.214;2023-03-23T08:28:21;17.70;24.40
578;DHT22;275;48.492;9.214;2023-03-23T08:30:50;17.70;24.70
578;DHT22;275;48.492;9.214;2023-03-23T08:33:17;17.70;25.00
578;DHT22;275;48.492;9.214;2023-03-23T08:35:44;18.00;24.70
578;DHT22;275;48.492;9.214;2023-03-23T08:38:11;18.50;24.00
578;DHT22;275;48.492;9.214;2023-03-23T08:40:38;18.30;24.50
578;DHT22;275;48.492;9.214;2023-03-23T08:43:05;18.50;24.20
578;DHT22;275;48.492;9.214;2023-03-23T08:45:32;19.10;23.80
578;DHT22;275;48.492;9.214;2023-03-23T08:48:00;18.70;24.30
578;DHT22;275;48.492;9.214;2023-03-23T08:50:28;18.10;25.10
578;DHT22;275;48.492;9.214;2023-03-23T08:52:56;17.50;26.00
578;DHT22;275;48.492;9.214;2023-03-23T08:55:23;17.70;26.10
578;DHT22;275;48.492;9.214;2023-03-23T08:57:51;17.90;25.70
578;DHT22;275;48.492;9.214;2023-03-23T09:00:21;17.50;26.40
578;DHT22;275;48.492;9.214;2023-03-23T09:02:51;18.00;26.10
578;DHT22;275;48.492;9.214;2023-03-23T09:05:22;18.60;25.30
578;DHT22;275;48.492;9.214;2023-03-23T09:07:52;18.50;25.50
578;DHT22;275;48.492;9.214;2023-03-23T09:10:20;18.50;25.50
578;DHT22;275;48.492;9.214;2023-03-23T09:12:47;18.40;25.70
578;DHT22;275;48.492;9.214;2023-03-23T09:15:17;18.30;26.10
578;DHT22;275;48.492;9.214;2023-03-23T09:17:45;17.50;27.10
578;DHT22;275;48.492;9.214;2023-03-23T09:20:13;17.40;27.90
578;DHT22;275;48.492;9.214;2023-03-23T09:22:43;18.30;26.80
578;DHT22;275;48.492;9.214;2023-03-23T09:25:12;18.90;26.10
578;DHT22;275;48.492;9.214;2023-03-23T09:27:41;18.20;27.10
578;DHT22;275;48.492;9.214;2023-03-23T09:30:11;18.40;27.20
578;DHT22;275;48.492;9.214;2023-03-23T09:32:39;19.00;26.50
578;DHT22;275;48.492;9.214;2023-03-23T09:35:08;19.70;25.60
578;DHT22;275;48.492;9.214;2023-03-23T09:37:37;19.80;25.20
578;DHT22;275;48.492;9.214;2023-03-23T09:40:11;20.10;24.50
578;DHT22;275;48.492;9.214;2023-03-23T09:42:53;20.30;24.70
578;DHT22;275;48.492;9.214;2023-03-23T09:45:27;18.80;25.90
578;DHT22;275;48.492;9.214;2023-03-23T09:48:23;18.80;26.80
578;DHT22;275;48.492;9.214;2023-03-23T09:50:55;18.50;26.70
578;DHT22;275;48.492;9.214;2023-03-23T09:53:27;18.20;27.40
578;DHT22;275;48.492;9.214;2023-03-23T09:56:03;18.20;27.40
578;DHT22;275;48.492;9.214;2023-03-23T09:58:36;18.80;27.00
578;DHT22;275;48.492;9.214;2023-03-23T10:01:08;19.10;25.90
578;DHT22;275;48.492;9.214;2023-03-23T10:03:39;19.60;25.40
578;DHT22;275;48.492;9.214;2023-03-23T10:06:10;19.60;25.00
578;DHT22;275;48.492;9.214;2023-03-23T10:08:41;19.10;26.30
578;DHT22;275;48.492;9.214;2023-03-23T10:11:14;19.00;25.80
578;DHT22;275;48.492;9.214;2023-03-23T10:13:59;19.20;25.60
578;DHT22;275;48.492;9.214;2023-03-23T10:16:31;19.60;25.10
578;DHT22;275;48.492;9.214;2023-03-23T10:19:02;20.80;23.80
578;DHT22;275;48.492;9.214;2023-03-23T10:21:35;20.90;23.20
578;DHT22;275;48.492;9.214;2023-03-23T10:24:07;20.50;24.10
578;DHT22;275;48.492;9.214;2023-03-23T10:26:45;20.60;23.40
578;DHT22;275;48.492;9.214;2023-03-23T10:29:17;20.00;24.00
578;DHT22;275;48.492;9.214;2023-03-23T10:31:48;19.70;24.50
578;DHT22;275;48.492;9.214;2023-03-23T10:34:20;19.30;24.80
578;DHT22;275;48.492;9.214;2023-03-23T10:36:56;19.40;25.20
578;DHT22;275;48.492;9.214;2023-03-23T10:39:29;20.10;24.50
578;DHT22;275;48.492;9.214;2023-03-23T10:42:00;20.10;24.30
578;DHT22;275;48.492;9.214;2023-03-23T10:44:33;20.30;25.30
578;DHT22;275;48.492;9.214;2023-03-23T10:47:02;20.20;25.20
578;DHT22;275;48.492;9.214;2023-03-23T10:49:34;19.80;26.20
578;DHT22;275;48.492;9.214;2023-03-23T10:52:09;18.80;26.70
578;DHT22;275;48.492;9.214;2023-03-23T10:54:39;18.30;29.10
578;DHT22;275;48.492;9.214;2023-03-23T10:57:21;18.70;28.30
578;DHT22;275;48.492;9.214;2023-03-23T10:59:49;19.40;27.60
578;DHT22;275;48.492;9.214;2023-03-23T11:02:17;19.30;27.30
578;DHT22;275;48.492;9.214;2023-03-23T11:04:56;18.60;28.40
578;DHT22;275;48.492;9.214;2023-03-23T11:07:29;18.60;28.40
578;DHT22;275;48.492;9.214;2023-03-23T11:10:15;19.30;27.70
578;DHT22;275;48.492;9.214;2023-03-23T11:12:45;19.30;27.50
578;DHT22;275;48.492;9.214;2023-03-23T11:15:27;19.00;27.30
578;DHT22;275;48.492;9.214;2023-03-23T11:17:56;18.50;27.80
578;DHT22;275;48.492;9.214;2023-03-23T11:20:24;18.20;27.50
578;DHT22;275;48.492;9.214;2023-03-23T11:22:52;18.50;26.90
578;DHT22;275;48.492;9.214;2023-03-23T11:25:19;18.50;26.70
578;DHT22;275;48.492;9.214;2023-03-23T11:27:48;19.10;25.90
578;DHT22;275;48.492;9.214;2023-03-23T11:30:22;19.20;25.20
578;DHT22;275;48.492;9.214;2023-03-23T11:32:50;18.80;25.70
578;DHT22;275;48.492;9.214;2023-03-23T11:35:21;18.70;25.60
578;DHT22;275;48.492;9.214;2023-03-23T11:37:51;18.80;25.60
578;DHT22;275;48.492;9.214;2023-03-23T11:40:20;18.90;25.30
578;DHT22;275;48.492;9.214;2023-03-23T11:42:56;19.10;25.30
578;DHT22;275;48.492;9.214;2023-03-23T11:45:26;18.90;25.80
578;DHT22;275;48.492;9.214;2023-03-23T11:48:03;19.90;24.60
578;DHT22;275;48.492;9.214;2023-03-23T11:50:36;20.10;23.60
578;DHT22;275;48.492;9.214;2023-03-23T11:53:10;20.20;24.40
578;DHT22;275;48.492;9.214;2023-03-23T11:55:53;20.50;23.00
578;DHT22;275;48.492;9.214;2023-03-23T11:58:23;20.20;24.00
578;DHT22;275;48.492;9.214;2023-03-23T12:00:55;20.20;24.20
578;DHT22;275;48.492;9.214;2023-03-23T12:03:33;20.90;23.00
578;DHT22;275;48.492;9.214;2023-03-23T12:06:06;20.90;22.90
578;DHT22;275;48.492;9.214;2023-03-23T12:08:48;20.40;23.80
578;DHT22;275;48.492;9.214;2023-03-23T12:11:25;19.30;24.50
578;DHT22;275;48.492;9.214;2023-03-23T12:14:03;19.80;24.30
578;DHT22;275;48.492;9.214;2023-03-23T12:16:41;19.60;24.20
578;DHT22;275;48.492;9.214;2023-03-23T12:19:16;19.60;24.30
578;DHT22;275;48.492;9.214;2023-03-23T12:21:52;19.40;24.40
578;DHT22;275;48.492;9.214;2023-03-23T12:24:34;19.40;24.70
578;DHT22;275;48.492;9.214;2023-03-23T12:27:06;19.30;24.50
578;DHT22;275;48.492;9.214;2023-03-23T12:29:52;20.00;23.80
578;DHT22;275;48.492;9.214;2023-03-23T12:32:40;20.30;23.60
578;DHT22;275;48.492;9.214;2023-03-23T12:35:19;19.70;24.20
578;DHT22;275;48.492;9.214;2023-03-23T12:38:03;19.80;24.20
578;DHT22;275;48.492;9.214;2023-03-23T12:40:45;19.70;24.00
578;DHT22;275;48.492;9.214;2023-03-23T12:43:19;19.20;24.80
578;DHT22;275;48.492;9.214;2023-03-23T12:46:01;19.30;24.60
578;DHT22;275;48.492;9.214;2023-03-23T12:48:33;18.90;25.70
578;DHT22;275;48.492;9.214;2023-03-23T12:51:07;19.20;24.70
578;DHT22;275;48.492;9.214;2023-03-23T12:53:41;19.10;24.70
578;DHT22;275;48.492;9.214;2023-03-23T12:56:16;19.00;25.10
578;DHT22;275;48.492;9.214;2023-03-23T12:58:45;18.60;24.80
578;DHT22;275;48.492;9.214;2023-03-23T13:01:17;18.80;25.50
578;DHT22;275;48.492;9.214;2023-03-23T13:03:51;18.30;25.40
578;DHT22;275;48.492;9.214;2023-03-23T13:06:23;19.00;24.70
578;DHT22;275;48.492;9.214;2023-03-23T13:08:55;19.40;23.90
578;DHT22;275;48.492;9.214;2023-03-23T13:11:26;19.80;23.10
578;DHT22;275;48.492;9.214;2023-03-23T13:13:58;19.70;23.30
578;DHT22;275;48.492;9.214;2023-03-23T13:16:32;19.30;23.90
578;DHT22;275;48.492;9.214;2023-03-23T13:19:08;19.10;23.90
578;DHT22;275;48.492;9.214;2023-03-23T13:21:41;19.30;24.20
578;DHT22;275;48.492;9.214;2023-03-23T13:24:13;19.90;23.30
578;DHT22;275;48.492;9.214;2023-03-23T13:26:42;20.20;23.00
578;DHT22;275;48.492;9.214;2023-03-23T13:29:13;19.80;23.40
578;DHT22;275;48.492;9.214;2023-03-23T13:31:42;19.30;24.00
578;DHT22;275;48.492;9.214;2023-03-23T13:34:16;19.60;23.90
578;DHT22;275;48.492;9.214;2023-03-23T13:36:51;20.00;23.20
578;DHT22;275;48.492;9.214;2023-03-23T13:39:20;20.20;23.70
578;DHT22;275;48.492;9.214;2023-03-23T13:42:00;19.70;23.40
578;DHT22;275;48.492;9.214;2023-03-23T13:44:40;19.60;23.80
578;DHT22;275;48.492;9.214;2023-03-23T13:47:21;20.70;22.50
578;DHT22;275;48.492;9.214;2023-03-23T13:49:50;20.50;22.50
578;DHT22;275;48.492;9.214;2023-03-23T13:52:23;20.70;22.50
578;DHT22;275;48.492;9.214;2023-03-23T13:54:51;20.70;22.60
578;DHT22;275;48.492;9.214;2023-03-23T13:57:34;20.60;22.30
578;DHT22;275;48.492;9.214;2023-03-23T14:02:51;20.10;23.20
578;DHT22;275;48.492;9.214;2023-03-23T14:05:34;19.50;24.10
578;DHT22;275;48.492;9.214;2023-03-23T14:08:03;19.20;24.20
578;DHT22;275;48.492;9.214;2023-03-23T14:10:38;19.00;24.80
578;DHT22;275;48.492;9.214;2023-03-23T14:13:11;19.40;24.40
578;DHT22;275;48.492;9.214;2023-03-23T14:15:43;19.90;23.40
578;DHT22;275;48.492;9.214;2023-03-23T14:18:15;19.70;22.90
578;DHT22;275;48.492;9.214;2023-03-23T14:20:45;19.50;23.60
578;DHT22;275;48.492;9.214;2023-03-23T14:23:16;19.50;23.40
578;DHT22;275;48.492;9.214;2023-03-23T14:25:43;20.00;22.90
578;DHT22;275;48.492;9.214;2023-03-23T14:28:17;19.70;23.00
578;DHT22;275;48.492;9.214;2023-03-23T14:30:46;19.50;23.40
578;DHT22;275;48.492;9.214;2023-03-23T14:33:15;19.70;23.00
578;DHT22;275;48.492;9.214;2023-03-23T14:35:43;19.80;22.70
578;DHT22;275;48.492;9.214;2023-03-23T14:38:15;19.50;22.90
578;DHT22;275;48.492;9.214;2023-03-23T14:40:44;19.20;23.20
578;DHT22;275;48.492;9.214;2023-03-23T14:43:13;18.80;23.90
578;DHT22;275;48.492;9.214;2023-03-23T14:45:41;18.90;23.90
578;DHT22;275;48.492;9.214;2023-03-23T14:48:12;19.50;23.10
578;DHT22;275;48.492;9.214;2023-03-23T14:50:42;19.10;23.50
578;DHT22;275;48.492;9.214;2023-03-23T14:53:18;19.00;23.90
578;DHT22;275;48.492;9.214;2023-03-23T14:55:47;19.30;23.50
578;DHT22;275;48.492;9.214;2023-03-23T14:58:16;19.30;23.60
578;DHT22;275;48.492;9.214;2023-03-23T15:00:46;19.50;23.50
578;DHT22;275;48.492;9.214;2023-03-23T15:03:16;19.10;24.10
578;DHT22;275;48.492;9.214;2023-03-23T15:05:47;18.80;24.20
578;DHT22;275;48.492;9.214;2023-03-23T15:08:19;18.60;24.50
578;DHT22;275;48.492;9.214;2023-03-23T15:10:52;18.40;24.90
578;DHT22;275;48.492;9.214;2023-03-23T15:13:20;18.90;24.30
578;DHT22;275;48.492;9.214;2023-03-23T15:15:47;19.10;24.60
578;DHT22;275;48.492;9.214;2023-03-23T15:18:29;18.70;24.70
578;DHT22;275;48.492;9.214;2023-03-23T15:20:57;19.10;24.30
578;DHT22;275;48.492;9.214;2023-03-23T15:23:28;19.20;23.90
578;DHT22;275;48.492;9.214;2023-03-23T15:25:56;19.00;24.30
578;DHT22;275;48.492;9.214;2023-03-23T15:28:29;19.20;24.30
578;DHT22;275;48.492;9.214;2023-03-23T15:30:59;19.30;24.20
578;DHT22;275;48.492;9.214;2023-03-23T15:33:26;19.60;23.80
578;DHT22;275;48.492;9.214;2023-03-23T15:35:57;19.80;23.70
578;DHT22;275;48.492;9.214;2023-03-23T15:38:25;20.20;23.10
578;DHT22;275;48.492;9.214;2023-03-23T15:40:53;20.30;22.90
578;DHT22;275;48.492;9.214;2023-03-23T15:43:22;20.50;22.50
578;DHT22;275;48.492;9.214;2023-03-23T15:45:55;20.70;22.40
578;DHT22;275;48.492;9.214;2023-03-23T15:48:26;20.40;22.60
578;DHT22;275;48.492;9.214;2023-03-23T15:50:53;19.70;23.30
578;DHT22;275;48.492;9.214;2023-03-23T15:53:29;19.50;23.50
578;DHT22;275;48.492;9.214;2023-03-23T15:55:59;19.30;23.80
578;DHT22;275;48.492;9.214;2023-03-23T15:58:27;19.00;24.40
578;DHT22;275;48.492;9.214;2023-03-23T16:00:54;18.70;24.60
578;DHT22;275;48.492;9.214;2023-03-23T16:03:23;18.50;24.90
578;DHT22;275;48.492;9.214;2023-03-23T16:05:52;18.60;25.00
578;DHT22;275;48.492;9.214;2023-03-23T16:08:19;18.70;24.70
578;DHT22;275;48.492;9.214;2023-03-23T16:10:47;18.90;24.70
578;DHT22;275;48.492;9.214;2023-03-23T16:13:15;18.70;25.00
578;DHT22;275;48.492;9.214;2023-03-23T16:15:43;18.90;24.90
578;DHT22;275;48.492;9.214;2023-03-23T16:18:16;18.80;25.00
578;DHT22;275;48.492;9.214;2023-03-23T16:20:43;18.90;24.70
578;DHT22;275;48.492;9.214;2023-03-23T16:23:10;18.90;24.60
578;DHT22;275;48.492;9.214;2023-03-23T16:25:37;19.00;24.80
578;DHT22;275;48.492;9.214;2023-03-23T16:28:07;19.60;24.50
578;DHT22;275;48.492;9.214;2023-03-23T16:30:35;19.90;23.60
578;DHT22;275;48.492;9.214;2023-03-23T16:33:02;19.70;23.90
578;DHT22;275;48.492;9.214;2023-03-23T16:35:29;19.40;24.20
578;DHT22;275;48.492;9.214;2023-03-23T16:37:56;18.70;25.40
578;DHT22;275;48.492;9.214;2023-03-23T16:40:24;18.70;25.30
578;DHT22;275;48.492;9.214;2023-03-23T16:42:51;18.60;25.50
578;DHT22;275;48.492;9.214;2023-03-23T16:45:20;19.00;25.20
578;DHT22;275;48.492;9.214;2023-03-23T16:47:48;19.50;24.10
578;DHT22;275;48.492;9.214;2023-03-23T16:50:16;19.80;24.00
578;DHT22;275;48.492;9.214;2023-03-23T16:52:45;19.80;24.10
578;DHT22;275;48.492;9.214;2023-03-23T16:55:14;20.10;23.50
578;DHT22;275;48.492;9.214;2023-03-23T16:57:41;19.30;24.50
578;DHT22;275;48.492;9.214;2023-03-23T17:00:11;19.20;24.70
578;DHT22;275;48.492;9.214;2023-03-23T17:02:41;18.60;25.10